createdAt,value
2023-01-19T00:00:05.963Z,96783.34
2023-01-19T00:02:33.045Z,96773.34
2023-01-19T00:04:59.811Z,96797.88
2023-01-19T00:07:26.503Z,96798.25
2023-01-19T00:09:53.240Z,96788.84
2023-01-19T00:12:19.957Z,96796.69
2023-01-19T00:14:46.711Z,96789.00
2023-01-19T00:17:13.481Z,96808.78
2023-01-19T00:19:40.167Z,96816.25
2023-01-19T00:22:06.887Z,96817.84
2023-01-19T00:24:33.964Z,96806.44
2023-01-19T00:27:03.480Z,96832.19
2023-01-19T00:29:34.333Z,96822.84
2023-01-19T00:32:01.974Z,96818.06
2023-01-19T00:34:37.162Z,96817.06
2023-01-19T00:37:04.501Z,96841.31
2023-01-19T00:39:31.017Z,96845.00
2023-01-19T00:42:16.283Z,96849.41
2023-01-19T00:44:43.077Z,96847.91
2023-01-19T00:47:09.874Z,96842.19
2023-01-19T00:49:36.607Z,96847.84
2023-01-19T00:52:03.730Z,96853.25
2023-01-19T00:54:30.441Z,96847.28
2023-01-19T00:56:57.349Z,96851.34
2023-01-19T00:59:25.854Z,96847.50
2023-01-19T01:01:52.702Z,96837.06
2023-01-19T01:04:19.624Z,96835.38
2023-01-19T01:06:46.519Z,96833.22
2023-01-19T01:09:13.331Z,96829.50
2023-01-19T01:11:43.496Z,96838.91
2023-01-19T01:14:12.596Z,96849.78
2023-01-19T01:16:39.641Z,96854.50
2023-01-19T01:19:06.436Z,96861.47
2023-01-19T01:21:34.681Z,96856.31
2023-01-19T01:24:01.885Z,96876.31
2023-01-19T01:26:28.623Z,96892.56
2023-01-19T01:28:55.399Z,96875.03
2023-01-19T01:31:22.255Z,96843.19
2023-01-19T01:33:49.114Z,96847.72
2023-01-19T01:36:15.847Z,96841.75
2023-01-19T01:38:42.703Z,96850.66
2023-01-19T01:41:09.740Z,96838.69
2023-01-19T01:44:06.300Z,96830.16
2023-01-19T01:46:33.017Z,96823.41
2023-01-19T01:49:08.265Z,96829.28
2023-01-19T01:51:41.175Z,96803.50
2023-01-19T01:54:07.939Z,96845.75
2023-01-19T01:56:38.855Z,96843.91
2023-01-19T01:59:11.772Z,96826.00
2023-01-19T02:01:57.587Z,96814.91
2023-01-19T02:04:24.843Z,96826.53
2023-01-19T02:07:10.034Z,96811.06
2023-01-19T02:09:56.353Z,96812.75
2023-01-19T02:12:42.198Z,96797.69
2023-01-19T02:15:17.425Z,96797.38
2023-01-19T02:17:44.593Z,96784.84
2023-01-19T02:20:11.917Z,96763.88
2023-01-19T02:22:50.454Z,96801.97
2023-01-19T02:25:19.295Z,96803.06
2023-01-19T02:27:46.147Z,96800.69
2023-01-19T02:30:14.194Z,96809.88
2023-01-19T02:32:41.332Z,96795.94
2023-01-19T02:35:08.636Z,96794.16
2023-01-19T02:37:40.215Z,96804.25
2023-01-19T02:40:21.873Z,96798.59
2023-01-19T02:42:56.722Z,96822.56
2023-01-19T02:45:24.310Z,96799.59
2023-01-19T02:47:52.960Z,96806.81
2023-01-19T02:50:50.608Z,96809.41
2023-01-19T02:53:20.042Z,96806.56
2023-01-19T02:55:57.268Z,96794.47
2023-01-19T02:59:02.881Z,96813.06
2023-01-19T03:02:00.716Z,96820.03
2023-01-19T03:04:58.318Z,96824.50
2023-01-19T03:07:33.991Z,96824.50
2023-01-19T03:10:08.158Z,96821.66
2023-01-19T03:13:24.300Z,96848.19
2023-01-19T03:16:05.678Z,96833.94
2023-01-19T03:18:36.154Z,96831.34
2023-01-19T03:21:07.352Z,96851.16
2023-01-19T03:23:36.614Z,96850.94
2023-01-19T03:26:06.026Z,96847.88
2023-01-19T03:28:36.222Z,96849.44
2023-01-19T03:31:11.310Z,96844.97
2023-01-19T03:33:41.224Z,96843.09
2023-01-19T03:36:20.118Z,96850.72
2023-01-19T03:38:49.815Z,96834.44
2023-01-19T03:41:20.182Z,96831.59
2023-01-19T03:43:49.614Z,96836.00
2023-01-19T03:46:18.944Z,96837.56
2023-01-19T03:48:46.682Z,96826.69
2023-01-19T03:51:14.608Z,96841.09
2023-01-19T03:53:41.709Z,96831.84
2023-01-19T03:56:14.915Z,96851.25
2023-01-19T03:58:42.429Z,96847.03
2023-01-19T04:01:09.519Z,96848.13
2023-01-19T04:03:36.151Z,96859.06
2023-01-19T04:06:03.229Z,96849.66
2023-01-19T04:08:29.967Z,96858.00
2023-01-19T04:10:57.941Z,96853.78
2023-01-19T04:13:24.735Z,96841.78
2023-01-19T04:15:51.475Z,96849.19
2023-01-19T04:18:18.223Z,96846.16
2023-01-19T04:20:44.927Z,96851.03
2023-01-19T04:23:11.834Z,96853.56
2023-01-19T04:25:39.048Z,96842.38
2023-01-19T04:28:05.672Z,96850.97
2023-01-19T04:30:33.199Z,96839.16
2023-01-19T04:33:00.598Z,96844.28
2023-01-19T04:35:27.556Z,96842.59
2023-01-19T04:37:54.610Z,96821.28
2023-01-19T04:40:21.365Z,96819.81
2023-01-19T04:42:48.054Z,96819.06
2023-01-19T04:45:14.913Z,96832.59
2023-01-19T04:47:42.769Z,96839.66
2023-01-19T04:50:11.584Z,96836.13
2023-01-19T04:52:38.375Z,96834.28
2023-01-19T04:55:06.792Z,96852.19
2023-01-19T04:57:33.618Z,96867.69
2023-01-19T05:00:00.385Z,96861.66
2023-01-19T05:02:27.741Z,96873.00
2023-01-19T05:04:54.585Z,96888.47
2023-01-19T05:07:23.481Z,96889.28
2023-01-19T05:09:50.215Z,96853.72
2023-01-19T05:12:17.057Z,96898.50
2023-01-19T05:14:43.877Z,96894.44
2023-01-19T05:17:11.246Z,96889.84
2023-01-19T05:19:38.053Z,96898.50
2023-01-19T05:22:06.060Z,96895.06
2023-01-19T05:24:32.844Z,96890.38
2023-01-19T05:26:59.901Z,96896.41
2023-01-19T05:29:27.042Z,96886.31
2023-01-19T05:31:58.148Z,96884.94
2023-01-19T05:34:25.086Z,96871.97
2023-01-19T05:36:51.885Z,96868.53
2023-01-19T05:39:18.665Z,96863.59
2023-01-19T05:41:45.729Z,96890.06
2023-01-19T05:44:12.770Z,96909.44
2023-01-19T05:46:40.881Z,96919.69
2023-01-19T05:49:07.872Z,96907.19
2023-01-19T05:51:38.089Z,96925.03
2023-01-19T05:54:06.329Z,96920.22
2023-01-19T05:56:33.510Z,96951.59
2023-01-19T05:59:00.529Z,96960.03
2023-01-19T06:01:29.547Z,96947.19
2023-01-19T06:04:01.319Z,96946.34
2023-01-19T06:06:29.492Z,96951.69
2023-01-19T06:08:56.821Z,96938.38
2023-01-19T06:11:26.390Z,96939.50
2023-01-19T06:13:53.132Z,96934.53
2023-01-19T06:16:19.953Z,96956.72
2023-01-19T06:18:46.802Z,96967.88
2023-01-19T06:21:14.792Z,96965.53
2023-01-19T06:23:41.711Z,96948.56
2023-01-19T06:26:08.983Z,96964.53
2023-01-19T06:28:35.787Z,96983.66
2023-01-19T06:31:02.994Z,96938.91
2023-01-19T06:33:29.845Z,96955.00
2023-01-19T06:35:59.014Z,96988.03
2023-01-19T06:38:26.039Z,96979.63
2023-01-19T06:41:02.947Z,96985.47
2023-01-19T06:43:31.640Z,96992.59
2023-01-19T06:46:00.708Z,96996.88
2023-01-19T06:48:28.025Z,96984.84
2023-01-19T06:50:55.563Z,96991.66
2023-01-19T06:53:23.521Z,97004.06
2023-01-19T06:55:50.289Z,96986.06
2023-01-19T06:58:17.477Z,97008.97
2023-01-19T07:00:44.359Z,96993.72
2023-01-19T07:03:19.811Z,97027.09
2023-01-19T07:05:49.972Z,97022.13
2023-01-19T07:08:17.057Z,97024.66
2023-01-19T07:11:24.948Z,97037.16
2023-01-19T07:13:31.002Z,97031.97
2023-01-19T07:16:06.667Z,97048.97
2023-01-19T07:18:34.446Z,97047.50
2023-01-19T07:21:02.332Z,97058.31
2023-01-19T07:23:31.929Z,97022.13
2023-01-19T07:26:03.256Z,97060.84
2023-01-19T07:28:31.165Z,97057.41
2023-01-19T07:30:58.053Z,97060.66
2023-01-19T07:33:26.160Z,97066.59
2023-01-19T07:35:53.411Z,97066.72
2023-01-19T07:38:20.445Z,97081.44
2023-01-19T07:40:47.168Z,97078.63
2023-01-19T07:43:15.288Z,97086.19
2023-01-19T07:45:43.048Z,97077.75
2023-01-19T07:48:09.924Z,97089.31
2023-01-19T07:50:36.980Z,97099.69
2023-01-19T07:53:08.520Z,97105.47
2023-01-19T07:55:36.851Z,97090.81
2023-01-19T07:58:07.566Z,97104.94
2023-01-19T08:00:36.919Z,97079.06
2023-01-19T08:03:05.209Z,97098.31
2023-01-19T08:05:33.356Z,97090.75
2023-01-19T08:08:00.748Z,97109.53
2023-01-19T08:10:29.183Z,97079.13
2023-01-19T08:12:58.326Z,97095.88
2023-01-19T08:15:25.697Z,97095.25
2023-01-19T08:17:59.294Z,97119.78
2023-01-19T08:20:27.242Z,97087.88
2023-01-19T08:23:01.419Z,97097.63
2023-01-19T08:25:42.333Z,97119.53
2023-01-19T08:28:10.484Z,97117.31
2023-01-19T08:30:39.109Z,97126.31
2023-01-19T08:33:08.323Z,97126.94
2023-01-19T08:35:40.248Z,97129.41
2023-01-19T08:38:08.902Z,97126.03
2023-01-19T08:40:38.980Z,97118.03
2023-01-19T08:43:11.377Z,97156.66
2023-01-19T08:45:46.596Z,97157.84
2023-01-19T08:48:13.923Z,97146.72
2023-01-19T08:50:40.717Z,97172.56
2023-01-19T08:53:07.889Z,97162.72
2023-01-19T08:55:36.483Z,97163.00
2023-01-19T08:58:05.282Z,97166.84
2023-01-19T09:00:34.587Z,97168.97
2023-01-19T09:03:04.297Z,97166.06
2023-01-19T09:05:35.653Z,97185.22
2023-01-19T09:08:08.246Z,97167.56
2023-01-19T09:10:38.568Z,97176.69
2023-01-19T09:13:08.544Z,97145.03
2023-01-19T09:15:37.690Z,97188.56
2023-01-19T09:18:07.112Z,97195.25
2023-01-19T09:20:36.198Z,97179.47
2023-01-19T09:23:19.458Z,97188.69
2023-01-19T09:25:47.554Z,97202.88
2023-01-19T09:28:17.881Z,97205.94
2023-01-19T09:30:44.909Z,97205.09
2023-01-19T09:33:15.435Z,97229.34
2023-01-19T09:35:44.162Z,97227.88
2023-01-19T09:38:15.380Z,97216.63
2023-01-19T09:40:45.399Z,97227.44
2023-01-19T09:43:26.415Z,97249.84
2023-01-19T09:46:06.875Z,97261.00
2023-01-19T09:49:04.835Z,97251.28
2023-01-19T09:51:36.655Z,97225.34
2023-01-19T09:54:21.271Z,97246.38
2023-01-19T09:56:52.383Z,97240.28
2023-01-19T09:59:21.926Z,97267.66
2023-01-19T10:02:16.710Z,97265.59
2023-01-19T10:04:54.789Z,97269.19
2023-01-19T10:07:59.334Z,97262.81
2023-01-19T10:10:29.115Z,97258.53
2023-01-19T10:13:17.689Z,97257.03
2023-01-19T10:16:04.216Z,97258.59
2023-01-19T10:18:48.865Z,97246.59
2023-01-19T10:21:23.367Z,97222.06
2023-01-19T10:23:53.361Z,97243.09
2023-01-19T10:26:37.298Z,97246.88
2023-01-19T10:29:16.384Z,97238.44
2023-01-19T10:31:46.525Z,97227.66
2023-01-19T10:34:21.510Z,97247.56
2023-01-19T10:36:59.098Z,97259.22
2023-01-19T10:39:26.092Z,97254.16
2023-01-19T10:41:54.103Z,97269.69
2023-01-19T10:44:27.005Z,97263.78
2023-01-19T10:46:57.860Z,97257.59
2023-01-19T10:49:35.744Z,97272.94
2023-01-19T10:52:04.968Z,97259.41
2023-01-19T10:54:33.411Z,97260.59
2023-01-19T10:57:05.419Z,97258.94
2023-01-19T10:59:35.631Z,97262.50
2023-01-19T11:02:27.698Z,97277.44
2023-01-19T11:05:21.025Z,97285.50
2023-01-19T11:07:47.821Z,97281.88
2023-01-19T11:10:23.255Z,97297.16
2023-01-19T11:13:03.612Z,97278.69
2023-01-19T11:15:44.146Z,97277.56
2023-01-19T11:18:31.547Z,97301.34
2023-01-19T11:21:02.372Z,97322.44
2023-01-19T11:23:32.153Z,97311.41
2023-01-19T11:26:01.706Z,97320.84
2023-01-19T11:28:39.877Z,97319.47
2023-01-19T11:31:16.216Z,97334.78
2023-01-19T11:33:54.468Z,97327.09
2023-01-19T11:36:24.226Z,97311.66
2023-01-19T11:39:00.178Z,97315.25
2023-01-19T11:41:37.265Z,97321.16
2023-01-19T11:44:18.539Z,97324.72
2023-01-19T11:46:50.950Z,97312.88
2023-01-19T11:49:28.199Z,97322.09
2023-01-19T11:52:21.273Z,97332.53
2023-01-19T11:54:58.110Z,97325.84
2023-01-19T11:57:26.134Z,97312.88
2023-01-19T11:59:53.990Z,97332.09
2023-01-19T12:02:29.234Z,97339.06
2023-01-19T12:05:13.425Z,97339.03
2023-01-19T12:07:41.682Z,97332.81
2023-01-19T12:10:27.260Z,97324.22
2023-01-19T12:12:54.461Z,97321.97
2023-01-19T12:15:40.603Z,97321.13
2023-01-19T12:18:13.028Z,97312.47
2023-01-19T12:20:50.177Z,97322.31
2023-01-19T12:23:29.325Z,97324.72
2023-01-19T12:25:56.106Z,97325.75
2023-01-19T12:28:29.846Z,97333.22
2023-01-19T12:30:59.032Z,97311.13
2023-01-19T12:33:35.176Z,97340.91
2023-01-19T12:36:35.512Z,97339.81
2023-01-19T12:39:12.733Z,97343.25
2023-01-19T12:41:40.821Z,97338.66
2023-01-19T12:44:19.542Z,97357.91
2023-01-19T12:46:50.767Z,97344.38
2023-01-19T12:49:23.542Z,97361.00
2023-01-19T12:51:53.632Z,97354.50
2023-01-19T12:54:34.160Z,97368.88
2023-01-19T12:57:16.860Z,97335.78
2023-01-19T12:59:45.043Z,97354.72
2023-01-19T13:02:20.566Z,97367.34
2023-01-19T13:05:21.571Z,97372.75
2023-01-19T13:08:06.833Z,97364.16
2023-01-19T13:11:10.949Z,97362.69
2023-01-19T13:13:42.597Z,97363.75
2023-01-19T13:16:19.968Z,97357.03
2023-01-19T13:18:56.022Z,97347.63
2023-01-19T13:21:44.901Z,97349.66
2023-01-19T13:24:17.554Z,97364.31
2023-01-19T13:26:50.553Z,97367.25
2023-01-19T13:29:44.770Z,97374.72
2023-01-19T13:32:19.657Z,97372.81
2023-01-19T13:34:52.038Z,97358.06
2023-01-19T13:37:22.347Z,97365.00
2023-01-19T13:39:53.856Z,97385.03
2023-01-19T13:42:41.919Z,97384.88
2023-01-19T13:45:33.390Z,97395.66
2023-01-19T13:48:05.488Z,97394.41
2023-01-19T13:50:35.267Z,97402.00
2023-01-19T13:53:02.821Z,97392.97
2023-01-19T13:55:30.974Z,97406.47
2023-01-19T13:57:58.128Z,97423.16
2023-01-19T14:00:24.797Z,97423.72
2023-01-19T14:03:11.624Z,97412.66
2023-01-19T14:05:41.355Z,97418.72
2023-01-19T14:08:11.445Z,97437.66
2023-01-19T14:11:00.164Z,97427.81
2023-01-19T14:13:33.383Z,97445.00
2023-01-19T14:16:07.750Z,97453.91
2023-01-19T14:18:36.448Z,97458.97
2023-01-19T14:21:07.945Z,97468.34
2023-01-19T14:23:49.466Z,97431.56
2023-01-19T14:26:46.963Z,97466.78
2023-01-19T14:29:40.090Z,97458.97
2023-01-19T14:32:16.384Z,97430.41
2023-01-19T14:35:04.955Z,97462.56
2023-01-19T14:37:37.198Z,97455.13
2023-01-19T14:40:13.224Z,97457.50
2023-01-19T14:42:42.694Z,97453.16
2023-01-19T14:45:22.659Z,97426.75
2023-01-19T14:48:04.004Z,97445.78
2023-01-19T14:50:36.874Z,97457.88
2023-01-19T14:53:19.207Z,97465.84
2023-01-19T14:55:58.893Z,97471.34
2023-01-19T14:58:30.174Z,97472.88
2023-01-19T15:00:57.466Z,97473.97
2023-01-19T15:03:34.877Z,97492.38
2023-01-19T15:06:16.828Z,97482.34
2023-01-19T15:08:45.072Z,97478.97
2023-01-19T15:11:13.876Z,97505.41
2023-01-19T15:13:41.677Z,97492.44
2023-01-19T15:16:09.412Z,97493.28
2023-01-19T15:18:36.432Z,97499.97
2023-01-19T15:21:03.828Z,97483.97
2023-01-19T15:23:31.555Z,97506.91
2023-01-19T15:26:04.808Z,97506.91
2023-01-19T15:28:31.951Z,97501.81
2023-01-19T15:30:59.908Z,97502.81
2023-01-19T15:33:32.330Z,97503.00
2023-01-19T15:35:59.210Z,97501.38
2023-01-19T15:38:26.666Z,97494.03
2023-01-19T15:40:53.513Z,97491.50
2023-01-19T15:43:21.431Z,97486.34
2023-01-19T15:46:01.811Z,97492.25
2023-01-19T15:48:28.685Z,97475.53
2023-01-19T15:50:55.461Z,97497.09
2023-01-19T15:53:24.154Z,97499.13
2023-01-19T15:55:55.554Z,97511.34
2023-01-19T15:58:23.801Z,97503.63
2023-01-19T16:00:58.067Z,97515.09
2023-01-19T16:03:25.630Z,97508.31
2023-01-19T16:05:52.552Z,97512.88
2023-01-19T16:08:19.421Z,97526.94
2023-01-19T16:10:46.134Z,97522.84
2023-01-19T16:13:13.011Z,97506.03
2023-01-19T16:15:40.369Z,97520.38
2023-01-19T16:18:07.391Z,97534.28
2023-01-19T16:20:34.193Z,97541.78
2023-01-19T16:23:16.253Z,97551.34
2023-01-19T16:25:43.266Z,97555.03
2023-01-19T16:28:10.014Z,97553.41
2023-01-19T16:30:36.728Z,97543.00
2023-01-19T16:33:05.299Z,97541.06
2023-01-19T16:35:32.451Z,97535.69
2023-01-19T16:37:59.218Z,97531.19
2023-01-19T16:40:26.519Z,97540.47
2023-01-19T16:42:53.597Z,97538.34
2023-01-19T16:45:20.469Z,97551.06
2023-01-19T16:47:50.571Z,97548.81
2023-01-19T16:50:17.385Z,97556.34
2023-01-19T16:52:44.568Z,97561.72
2023-01-19T16:55:11.431Z,97554.81
2023-01-19T16:57:41.334Z,97544.03
2023-01-19T17:00:10.760Z,97556.94
2023-01-19T17:02:39.024Z,97557.72
2023-01-19T17:05:07.342Z,97545.72
2023-01-19T17:07:34.778Z,97543.78
2023-01-19T17:10:02.105Z,97536.09
2023-01-19T17:12:31.400Z,97531.75
2023-01-19T17:14:59.481Z,97515.75
2023-01-19T17:17:26.904Z,97538.88
2023-01-19T17:19:54.248Z,97539.97
2023-01-19T17:22:21.841Z,97548.56
2023-01-19T17:24:49.464Z,97536.03
2023-01-19T17:27:17.477Z,97551.75
2023-01-19T17:29:44.826Z,97539.97
2023-01-19T17:32:12.199Z,97556.25
2023-01-19T17:34:39.407Z,97552.84
2023-01-19T17:37:06.712Z,97532.28
2023-01-19T17:39:34.173Z,97542.28
2023-01-19T17:42:01.395Z,97530.91
2023-01-19T17:44:29.234Z,97517.25
2023-01-19T17:47:00.015Z,97513.59
2023-01-19T17:49:27.986Z,97531.38
2023-01-19T17:51:56.089Z,97543.41
2023-01-19T17:54:23.482Z,97530.59
2023-01-19T17:56:51.329Z,97553.66
2023-01-19T17:59:19.926Z,97566.75
2023-01-19T18:01:46.835Z,97547.72
2023-01-19T18:04:13.758Z,97567.50
2023-01-19T18:06:41.206Z,97568.53
2023-01-19T18:09:08.155Z,97589.00
2023-01-19T18:11:35.437Z,97579.63
2023-01-19T18:14:05.494Z,97573.53
2023-01-19T18:16:32.598Z,97585.72
2023-01-19T18:19:14.475Z,97587.44
2023-01-19T18:21:41.840Z,97577.97
2023-01-19T18:24:08.761Z,97561.69
2023-01-19T18:26:37.639Z,97561.69
2023-01-19T18:29:04.603Z,97572.81
2023-01-19T18:31:31.421Z,97569.25
2023-01-19T18:33:58.320Z,97559.97
2023-01-19T18:36:25.740Z,97572.81
2023-01-19T18:38:52.512Z,97578.03
2023-01-19T18:41:21.131Z,97572.22
2023-01-19T18:43:48.314Z,97567.91
2023-01-19T18:46:15.384Z,97582.44
2023-01-19T18:48:42.110Z,97564.34
2023-01-19T18:51:11.781Z,97562.59
2023-01-19T18:53:38.761Z,97571.03
2023-01-19T18:56:06.416Z,97573.34
2023-01-19T18:58:36.955Z,97590.59
2023-01-19T19:01:04.281Z,97593.53
2023-01-19T19:03:31.279Z,97557.78
2023-01-19T19:06:02.992Z,97564.34
2023-01-19T19:08:29.985Z,97566.53
2023-01-19T19:10:56.714Z,97557.28
2023-01-19T19:13:25.366Z,97561.69
2023-01-19T19:15:52.677Z,97568.38
2023-01-19T19:18:19.561Z,97571.75
2023-01-19T19:20:46.334Z,97572.91
2023-01-19T19:23:13.208Z,97576.91
2023-01-19T19:25:39.935Z,97567.59
2023-01-19T19:28:07.112Z,97578.59
2023-01-19T19:30:35.698Z,97581.16
2023-01-19T19:33:02.944Z,97580.13
2023-01-19T19:35:29.540Z,97579.94
2023-01-19T19:37:57.864Z,97576.63
2023-01-19T19:40:26.052Z,97566.50
2023-01-19T19:42:56.985Z,97593.69
2023-01-19T19:45:25.473Z,97590.31
2023-01-19T19:47:52.329Z,97590.31
2023-01-19T19:50:19.091Z,97580.31
2023-01-19T19:52:47.904Z,97610.06
2023-01-19T19:55:14.765Z,97597.28
2023-01-19T19:57:41.642Z,97595.56
2023-01-19T20:00:09.061Z,97612.50
2023-01-19T20:02:38.499Z,97605.69
2023-01-19T20:05:05.770Z,97616.69
2023-01-19T20:07:32.901Z,97614.09
2023-01-19T20:09:59.663Z,97609.72
2023-01-19T20:12:26.431Z,97609.13
2023-01-19T20:14:53.151Z,97604.34
2023-01-19T20:17:20.834Z,97574.00
2023-01-19T20:19:49.022Z,97600.91
2023-01-19T20:22:16.132Z,97596.78
2023-01-19T20:24:42.931Z,97591.88
2023-01-19T20:27:09.693Z,97599.84
2023-01-19T20:29:36.594Z,97577.81
2023-01-19T20:32:03.576Z,97571.31
2023-01-19T20:34:33.461Z,97572.38
2023-01-19T20:37:01.847Z,97560.31
2023-01-19T20:39:30.296Z,97570.84
2023-01-19T20:41:57.694Z,97567.72
2023-01-19T20:44:25.720Z,97555.88
2023-01-19T20:46:54.115Z,97547.19
2023-01-19T20:49:21.847Z,97563.59
2023-01-19T20:51:51.465Z,97555.84
2023-01-19T20:54:21.098Z,97548.47
2023-01-19T20:56:48.566Z,97555.78
2023-01-19T20:59:16.013Z,97541.31
2023-01-19T21:01:44.160Z,97569.38
2023-01-19T21:04:12.173Z,97569.28
2023-01-19T21:06:39.642Z,97567.50
2023-01-19T21:09:07.701Z,97564.22
2023-01-19T21:11:36.268Z,97585.94
2023-01-19T21:14:04.171Z,97576.03
2023-01-19T21:16:33.466Z,97593.75
2023-01-19T21:19:00.684Z,97565.59
2023-01-19T21:21:31.129Z,97579.91
2023-01-19T21:24:02.729Z,97605.41
2023-01-19T21:26:30.386Z,97599.47
2023-01-19T21:28:58.451Z,97595.00
2023-01-19T21:31:27.805Z,97594.88
2023-01-19T21:33:55.745Z,97584.56
2023-01-19T21:36:23.421Z,97582.97
2023-01-19T21:38:51.494Z,97591.03
2023-01-19T21:41:18.652Z,97601.66
2023-01-19T21:43:46.236Z,97589.78
2023-01-19T21:46:21.342Z,97593.28
2023-01-19T21:48:48.491Z,97599.41
2023-01-19T21:51:15.373Z,97595.28
2023-01-19T21:53:42.473Z,97605.78
2023-01-19T21:56:11.058Z,97599.63
2023-01-19T21:58:38.351Z,97602.09
2023-01-19T22:01:07.269Z,97615.66
2023-01-19T22:03:34.171Z,97604.56
2023-01-19T22:06:08.582Z,97603.16
2023-01-19T22:08:35.800Z,97610.06
2023-01-19T22:11:06.590Z,97622.03
2023-01-19T22:13:34.503Z,97606.72
2023-01-19T22:16:08.766Z,97598.31
2023-01-19T22:18:39.013Z,97598.22
2023-01-19T22:21:08.820Z,97598.31
2023-01-19T22:23:36.075Z,97592.41
2023-01-19T22:26:03.848Z,97596.69
2023-01-19T22:28:30.900Z,97576.47
2023-01-19T22:31:07.946Z,97586.81
2023-01-19T22:33:35.201Z,97569.94
2023-01-19T22:36:12.458Z,97591.34
2023-01-19T22:38:40.174Z,97596.69
2023-01-19T22:41:20.051Z,97591.25
2023-01-19T22:43:47.944Z,97580.84
2023-01-19T22:46:19.089Z,97572.22
2023-01-19T22:48:47.224Z,97581.53
2023-01-19T22:51:14.914Z,97568.38
2023-01-19T22:53:41.752Z,97552.97
2023-01-19T22:56:26.219Z,97567.31
2023-01-19T22:58:53.890Z,97556.09
2023-01-19T23:01:33.650Z,97555.97
2023-01-19T23:04:02.935Z,97567.28
2023-01-19T23:06:32.497Z,97558.94
2023-01-19T23:09:02.120Z,97560.88
2023-01-19T23:11:35.693Z,97560.94
2023-01-19T23:14:04.067Z,97561.63
2023-01-19T23:16:31.009Z,97555.00
2023-01-19T23:18:58.418Z,97565.66
2023-01-19T23:21:28.440Z,97559.50
2023-01-19T23:24:00.150Z,97544.00
2023-01-19T23:26:28.114Z,97545.88
2023-01-19T23:28:57.020Z,97568.22
2023-01-19T23:31:29.248Z,97573.53
2023-01-19T23:33:58.631Z,97556.44
2023-01-19T23:36:29.519Z,97549.91
2023-01-19T23:38:58.555Z,97571.06
2023-01-19T23:41:27.954Z,97584.03
2023-01-19T23:43:55.005Z,97582.41
2023-01-19T23:46:22.447Z,97583.72
2023-01-19T23:48:50.532Z,97576.25
2023-01-19T23:51:20.214Z,97594.16
2023-01-19T23:53:47.488Z,97599.00
2023-01-19T23:56:19.998Z,97605.66
2023-01-19T23:58:51.830Z,97608.00
